Time;durP1;ratioP1;P1;durP2;ratioP2;P2;SDS_P1;SDS_P2;PMS_P1;PMS_P2;Temp;Humidity;BMP_temperature;BMP_pressure;BME280_temperature;BME280_humidity;BME280_pressure;Samples;Min_cycle;Max_cycle;Signal;HPM_P1;HPM_P2
2024/01/14 00:00:51;;;;;;;6.15;5.10;;;21.20;29.10;;;;;;4909430;29;20505;-62
2024/01/14 00:03:18;;;;;;;7.20;5.05;;;21.20;29.00;;;;;;4915473;29;20045;-62
2024/01/14 00:05:47;;;;;;;5.95;5.05;;;21.10;29.10;;;;;;4911876;29;20524;-62
2024/01/14 00:08:14;;;;;;;5.97;5.05;;;21.10;29.10;;;;;;4909468;29;20052;-62
2024/01/14 00:10:41;;;;;;;6.75;5.43;;;21.10;29.10;;;;;;4907545;29;20052;-62
2024/01/14 00:13:09;;;;;;;6.07;4.85;;;21.10;29.10;;;;;;4913240;29;20063;-61
2024/01/14 00:15:36;;;;;;;6.30;5.15;;;21.10;29.20;;;;;;4910330;29;20048;-62
2024/01/14 00:18:03;;;;;;;6.43;5.78;;;21.00;29.10;;;;;;4909820;29;20052;-62
2024/01/14 00:20:30;;;;;;;6.72;5.45;;;21.00;29.10;;;;;;4913574;29;20052;-62
2024/01/14 00:22:59;;;;;;;7.20;5.22;;;21.00;29.10;;;;;;4910802;29;20106;-62
2024/01/14 00:25:27;;;;;;;5.80;4.90;;;21.00;29.10;;;;;;4908793;29;20059;-62
2024/01/14 00:27:54;;;;;;;7.13;4.28;;;21.00;29.20;;;;;;4912927;29;20047;-62
2024/01/14 00:30:21;;;;;;;5.57;4.38;;;20.90;29.30;;;;;;4911455;29;20063;-61
2024/01/14 00:32:48;;;;;;;5.88;4.72;;;21.00;29.30;;;;;;4910945;29;20056;-61
2024/01/14 00:35:16;;;;;;;5.38;4.30;;;21.00;29.40;;;;;;4910584;29;20063;-61
2024/01/14 00:37:43;;;;;;;5.68;4.68;;;21.00;29.40;;;;;;4912693;29;20056;-62
2024/01/14 00:40:12;;;;;;;5.68;4.78;;;21.10;29.40;;;;;;4910975;29;20413;-62
2024/01/14 00:42:39;;;;;;;5.10;4.20;;;21.10;29.40;;;;;;4908154;29;20509;-62
2024/01/14 00:45:07;;;;;;;6.03;4.45;;;21.10;29.40;;;;;;4907729;29;20092;-62
2024/01/14 00:47:35;;;;;;;5.28;4.38;;;21.20;29.50;;;;;;4909781;29;20060;-62
2024/01/14 00:50:02;;;;;;;5.50;4.53;;;21.20;29.40;;;;;;4910779;29;20044;-62
2024/01/14 00:52:29;;;;;;;5.65;4.75;;;21.30;29.40;;;;;;4912631;29;20518;-61
2024/01/14 00:54:56;;;;;;;4.82;4.32;;;21.30;29.40;;;;;;4911587;29;20056;-62
2024/01/14 00:57:25;;;;;;;6.00;4.32;;;21.30;29.40;;;;;;4912928;29;20398;-62
2024/01/14 00:59:53;;;;;;;5.40;4.72;;;21.40;29.40;;;;;;4907778;29;20052;-62
2024/01/14 01:02:20;;;;;;;6.18;5.03;;;21.40;29.40;;;;;;4911689;29;20063;-62
2024/01/14 01:04:47;;;;;;;5.78;5.13;;;21.40;29.30;;;;;;4910828;29;20505;-62
2024/01/14 01:07:14;;;;;;;6.82;5.50;;;21.50;29.30;;;;;;4910486;29;20051;-62
2024/01/14 01:09:41;;;;;;;7.40;5.10;;;21.50;29.30;;;;;;4912708;29;20044;-61
2024/01/14 01:12:09;;;;;;;5.75;4.78;;;21.50;29.30;;;;;;4911130;29;20075;-62
2024/01/14 01:14:37;;;;;;;6.85;5.93;;;21.50;29.30;;;;;;4912782;29;20059;-60
2024/01/14 01:17:04;;;;;;;6.15;5.25;;;21.50;29.30;;;;;;4910184;29;20063;-62
2024/01/14 01:19:31;;;;;;;6.68;5.35;;;21.60;29.20;;;;;;4911479;29;20056;-62
2024/01/14 01:21:59;;;;;;;6.40;5.20;;;21.50;29.20;;;;;;4908067;29;20051;-62
2024/01/14 01:24:26;;;;;;;8.45;5.93;;;21.60;29.20;;;;;;4910535;29;20063;-62
2024/01/14 01:26:53;;;;;;;7.85;6.18;;;21.50;29.20;;;;;;4908379;29;20044;-63
2024/01/14 01:29:20;;;;;;;7.53;5.70;;;21.50;29.10;;;;;;4909001;29;20059;-62
2024/01/14 01:31:49;;;;;;;6.97;5.85;;;21.50;29.10;;;;;;4908910;29;20056;-62
2024/01/14 01:34:16;;;;;;;8.05;6.30;;;21.50;29.10;;;;;;4908242;29;20056;-62
2024/01/14 01:36:43;;;;;;;7.65;6.25;;;21.50;29.10;;;;;;4911441;29;20067;-62
2024/01/14 01:39:10;;;;;;;10.25;5.88;;;21.40;29.10;;;;;;4908677;29;20060;-62
2024/01/14 01:41:37;;;;;;;7.60;6.00;;;21.40;29.10;;;;;;4910901;29;20064;-62
2024/01/14 01:44:05;;;;;;;7.30;6.15;;;21.40;29.10;;;;;;4910407;29;20055;-62
2024/01/14 01:46:32;;;;;;;8.18;6.40;;;21.40;29.10;;;;;;4906161;29;20052;-63
2024/01/14 01:49:02;;;;;;;9.00;7.10;;;21.40;29.20;;;;;;4910590;29;20048;-63
2024/01/14 01:51:30;;;;;;;8.57;6.80;;;21.30;29.10;;;;;;4908779;29;20063;-62
2024/01/14 01:53:58;;;;;;;7.53;6.07;;;21.30;29.10;;;;;;4905397;29;20071;-62
2024/01/14 01:56:27;;;;;;;8.07;6.45;;;21.30;29.20;;;;;;4907046;29;20048;-63
2024/01/14 01:58:55;;;;;;;7.70;6.40;;;21.30;29.20;;;;;;4908679;29;20143;-62
2024/01/14 02:01:23;;;;;;;8.25;6.32;;;21.20;29.20;;;;;;4908417;29;20060;-62
2024/01/14 02:03:53;;;;;;;7.47;6.22;;;21.20;29.20;;;;;;4910880;29;20052;-62
2024/01/14 02:06:21;;;;;;;7.28;6.03;;;21.20;29.20;;;;;;4907082;29;20059;-62
2024/01/14 02:08:49;;;;;;;6.88;6.07;;;21.20;29.20;;;;;;4911075;29;20056;-62
2024/01/14 02:11:16;;;;;;;7.95;6.20;;;21.10;29.20;;;;;;4910177;29;20063;-63
2024/01/14 02:13:43;;;;;;;5.90;4.82;;;21.10;29.30;;;;;;4909148;29;20394;-61
2024/01/14 02:16:10;;;;;;;6.60;5.28;;;21.20;29.30;;;;;;4910474;29;20055;-62
2024/01/14 02:18:37;;;;;;;6.20;5.03;;;21.20;29.40;;;;;;4910566;29;20516;-62
2024/01/14 02:21:05;;;;;;;6.32;5.50;;;21.20;29.40;;;;;;4908119;29;20060;-65
2024/01/14 02:23:40;;;;;;;6.38;5.40;;;21.30;29.40;;;;;;4905175;29;20063;-65
2024/01/14 02:26:09;;;;;;;6.40;5.45;;;21.30;29.40;;;;;;4906819;29;20060;-65
2024/01/14 02:28:37;;;;;;;5.72;4.90;;;21.30;29.40;;;;;;4908958;29;20063;-64
2024/01/14 02:31:04;;;;;;;5.78;4.90;;;21.40;29.40;;;;;;4908749;29;20580;-64
2024/01/14 02:33:32;;;;;;;5.35;4.50;;;21.40;29.40;;;;;;4909458;29;20055;-65
2024/01/14 02:35:59;;;;;;;5.38;4.25;;;21.40;29.40;;;;;;4910457;29;20056;-65
2024/01/14 02:38:26;;;;;;;5.70;4.40;;;21.50;29.40;;;;;;4914935;29;20532;-65
2024/01/14 02:40:54;;;;;;;5.18;4.20;;;21.50;29.30;;;;;;4912431;29;20056;-66
2024/01/14 02:43:22;;;;;;;5.68;4.85;;;21.60;29.30;;;;;;4912735;29;20102;-65
2024/01/14 02:45:50;;;;;;;5.03;4.32;;;21.60;29.30;;;;;;4911915;29;20056;-65
2024/01/14 02:48:17;;;;;;;5.60;4.53;;;21.60;29.30;;;;;;4912071;29;20409;-65
2024/01/14 02:50:44;;;;;;;5.25;4.50;;;21.70;29.30;;;;;;4912542;29;20063;-64
2024/01/14 02:53:11;;;;;;;4.90;3.92;;;21.70;29.30;;;;;;4912402;29;20055;-65
2024/01/14 02:55:39;;;;;;;4.70;4.20;;;21.70;29.20;;;;;;4912996;29;20063;-65
2024/01/14 02:58:06;;;;;;;5.20;4.43;;;21.70;29.20;;;;;;4913503;29;20409;-66
2024/01/14 03:00:34;;;;;;;5.38;4.63;;;21.70;29.20;;;;;;4911109;29;20056;-66
2024/01/14 03:03:02;;;;;;;4.30;3.90;;;21.70;29.10;;;;;;4912781;29;20052;-66
2024/01/14 03:05:29;;;;;;;4.90;3.90;;;21.70;29.10;;;;;;4908528;29;20425;-65
2024/01/14 03:07:56;;;;;;;4.07;3.67;;;21.60;29.10;;;;;;4913009;29;20048;-66
2024/01/14 03:13:46;;;;;;;4.57;3.58;;;21.60;29.00;;;;;;4912483;29;20059;-64
2024/01/14 03:16:14;;;;;;;4.22;3.53;;;21.60;29.00;;;;;;4909892;29;20059;-64
2024/01/14 03:18:42;;;;;;;5.88;4.03;;;21.50;29.00;;;;;;4911976;29;20052;-66
2024/01/14 03:21:16;;;;;;;5.10;4.30;;;21.50;29.00;;;;;;4910829;29;20075;-65
2024/01/14 03:23:43;;;;;;;;;;;21.50;29.00;;;;;;4915002;29;20059;-65
2024/01/14 03:26:10;;;;;;;4.25;3.55;;;21.50;29.00;;;;;;4910248;29;19923;-65
2024/01/14 03:28:39;;;;;;;4.68;3.83;;;21.50;29.00;;;;;;4914727;29;20063;-65
2024/01/14 03:31:08;;;;;;;4.57;3.97;;;21.40;29.00;;;;;;4909895;29;20489;-62
2024/01/14 03:33:36;;;;;;;4.57;3.70;;;21.40;29.00;;;;;;4904968;29;20067;-62
2024/01/14 03:36:04;;;;;;;4.18;3.53;;;21.40;29.10;;;;;;4912437;29;20052;-61
2024/01/14 03:38:31;;;;;;;4.03;3.25;;;21.30;29.10;;;;;;4910071;29;20429;-61
2024/01/14 03:40:58;;;;;;;5.30;3.75;;;21.30;29.10;;;;;;4912759;29;20052;-62
2024/01/14 03:43:26;;;;;;;5.90;3.80;;;21.30;29.20;;;;;;4906994;29;20063;-62
2024/01/14 03:45:53;;;;;;;4.93;3.70;;;21.20;29.20;;;;;;4911332;29;20401;-61
2024/01/14 03:48:20;;;;;;;4.78;3.63;;;21.20;29.20;;;;;;4910389;29;20059;-61
2024/01/14 03:50:49;;;;;;;3.28;2.92;;;21.20;29.20;;;;;;4910912;29;20409;-61
2024/01/14 03:53:16;;;;;;;3.38;2.60;;;21.20;29.20;;;;;;4912265;29;20508;-62
2024/01/14 03:55:46;;;;;;;3.53;3.10;;;21.20;29.20;;;;;;4912929;29;20064;-62
2024/01/14 03:58:13;;;;;;;3.38;2.92;;;21.20;29.20;;;;;;4913361;29;20417;-62
2024/01/14 04:00:40;;;;;;;3.17;2.88;;;21.30;29.30;;;;;;4910835;29;20063;-61
2024/01/14 04:03:07;;;;;;;3.15;2.85;;;21.30;29.30;;;;;;4908729;29;20063;-62
2024/01/14 04:05:34;;;;;;;4.07;3.28;;;21.30;29.30;;;;;;4909826;29;20060;-61
2024/01/14 04:08:03;;;;;;;3.47;2.83;;;21.40;29.30;;;;;;4912158;29;20413;-61
2024/01/14 04:10:31;;;;;;;3.65;3.13;;;21.40;29.30;;;;;;4912617;29;20062;-62
2024/01/14 04:12:58;;;;;;;3.50;2.55;;;21.40;29.30;;;;;;4910938;29;20052;-62
2024/01/14 04:15:25;;;;;;;2.83;2.53;;;21.40;29.30;;;;;;4909520;29;20063;-61
2024/01/14 04:17:53;;;;;;;2.75;2.45;;;21.50;29.30;;;;;;4909683;29;20048;-62
2024/01/14 04:20:20;;;;;;;2.90;2.42;;;21.50;29.30;;;;;;4909987;29;20060;-62
2024/01/14 04:22:47;;;;;;;4.38;2.83;;;21.50;29.30;;;;;;4914977;29;20059;-62
2024/01/14 04:25:16;;;;;;;2.97;2.70;;;21.60;29.30;;;;;;4914702;29;20063;-62
2024/01/14 04:27:43;;;;;;;2.88;2.47;;;21.60;29.30;;;;;;4913163;29;20044;-61
2024/01/14 04:30:11;;;;;;;2.90;2.63;;;21.60;29.30;;;;;;4910691;29;20066;-61
2024/01/14 04:32:38;;;;;;;4.95;2.83;;;21.70;29.40;;;;;;4911514;29;20048;-61
2024/01/14 04:35:05;;;;;;;5.07;2.75;;;21.70;29.30;;;;;;4907625;29;20060;-61
2024/01/14 04:37:33;;;;;;;3.55;3.13;;;21.70;29.20;;;;;;4910322;29;20052;-62
2024/01/14 04:40:00;;;;;;;3.78;3.03;;;21.70;29.20;;;;;;4909433;29;20059;-62
2024/01/14 04:42:35;;;;;;;3.30;2.65;;;21.60;29.20;;;;;;4909971;29;20059;-64
2024/01/14 04:45:02;;;;;;;4.13;3.17;;;21.60;29.20;;;;;;4908875;29;20052;-64
2024/01/14 04:47:29;;;;;;;3.20;2.70;;;21.70;29.20;;;;;;4909108;29;20048;-65
2024/01/14 04:49:57;;;;;;;2.97;2.63;;;21.70;29.20;;;;;;4906817;29;20079;-64
2024/01/14 04:52:24;;;;;;;3.78;3.00;;;21.60;29.10;;;;;;4907838;29;20068;-65
2024/01/14 04:54:51;;;;;;;3.10;2.80;;;21.60;29.10;;;;;;4909166;29;20575;-64
2024/01/14 04:57:18;;;;;;;3.60;2.60;;;21.60;29.10;;;;;;4908912;29;20398;-66
2024/01/14 04:59:47;;;;;;;4.00;2.80;;;21.60;29.10;;;;;;4909425;29;20417;-65
2024/01/14 05:02:13;;;;;;;3.08;2.75;;;21.50;29.10;;;;;;4909194;29;20056;-66
2024/01/14 05:04:40;;;;;;;3.45;2.60;;;21.50;29.10;;;;;;4909376;29;20056;-65
2024/01/14 05:07:07;;;;;;;4.72;2.47;;;21.50;29.50;;;;;;4908202;29;20047;-65
2024/01/14 05:09:34;;;;;;;3.67;2.35;;;21.50;29.20;;;;;;4909736;29;20064;-64
2024/01/14 05:12:01;;;;;;;5.22;2.30;;;21.40;29.20;;;;;;4909261;29;20063;-65
2024/01/14 05:14:29;;;;;;;7.05;2.85;;;21.40;29.20;;;;;;4908573;29;20798;-63
2024/01/14 05:16:57;;;;;;;5.97;2.97;;;21.40;29.20;;;;;;4912509;29;20052;-63
2024/01/14 05:19:25;;;;;;;6.80;3.30;;;21.40;29.20;;;;;;4912648;29;20501;-66
2024/01/14 05:21:53;;;;;;;7.75;2.90;;;21.40;29.20;;;;;;4911910;29;20527;-65
2024/01/14 05:24:20;;;;;;;8.57;2.92;;;21.40;29.30;;;;;;4911641;29;20064;-66
2024/01/14 05:26:47;;;;;;;13.90;3.58;;;21.30;29.20;;;;;;4910865;29;20528;-66
2024/01/14 05:29:14;;;;;;;10.35;3.17;;;21.30;29.20;;;;;;4909418;29;20060;-63
2024/01/14 05:31:42;;;;;;;7.03;2.72;;;21.30;29.30;;;;;;4909404;29;20290;-64
2024/01/14 05:34:10;;;;;;;6.32;3.20;;;21.30;29.40;;;;;;4909273;29;20439;-64
2024/01/14 05:36:37;;;;;;;4.78;2.75;;;21.30;29.40;;;;;;4909548;29;20417;-66
2024/01/14 05:39:05;;;;;;;11.85;3.70;;;21.30;29.40;;;;;;4910488;29;20461;-66
2024/01/14 05:41:32;;;;;;;14.77;8.70;;;21.40;29.40;;;;;;4910150;29;20074;-64
2024/01/14 05:43:59;;;;;;;38.92;23.13;;;21.40;29.40;;;;;;4909600;29;20052;-64
2024/01/14 05:46:26;;;;;;;18.42;12.07;;;21.50;29.40;;;;;;4908411;29;20060;-65
2024/01/14 05:48:54;;;;;;;12.68;8.48;;;21.40;29.40;;;;;;4908585;29;20055;-63
2024/01/14 05:51:22;;;;;;;9.18;6.70;;;21.50;29.50;;;;;;4908014;29;20056;-65
2024/01/14 05:53:49;;;;;;;8.52;6.35;;;21.50;29.50;;;;;;4909345;29;20052;-63
2024/01/14 05:56:25;;;;;;;8.32;5.50;;;21.50;29.50;;;;;;4907369;29;20056;-63
2024/01/14 05:58:52;;;;;;;9.02;5.55;;;21.50;29.60;;;;;;4911348;29;20485;-59
2024/01/14 06:01:19;;;;;;;8.25;5.50;;;21.60;29.60;;;;;;4909048;29;20056;-62
2024/01/14 06:03:46;;;;;;;49.10;28.88;;;21.60;29.60;;;;;;4909809;29;20056;-59
2024/01/14 06:06:14;;;;;;;37.60;24.83;;;21.70;29.40;;;;;;4909153;29;20060;-61
2024/01/14 06:08:43;;;;;;;24.15;16.90;;;21.70;29.40;;;;;;4909772;29;20543;-62
2024/01/14 06:11:12;;;;;;;17.38;11.50;;;21.70;29.40;;;;;;4913703;29;20052;-62
2024/01/14 06:13:39;;;;;;;15.50;10.40;;;21.80;29.40;;;;;;4914435;29;20401;-63
2024/01/14 06:16:06;;;;;;;16.45;9.95;;;21.80;29.40;;;;;;4912945;29;20508;-63
2024/01/14 06:18:33;;;;;;;18.00;10.05;;;21.80;29.40;;;;;;4913657;29;20048;-62
2024/01/14 06:21:01;;;;;;;11.93;8.35;;;21.80;29.40;;;;;;4913224;29;20055;-63
2024/01/14 06:23:29;;;;;;;12.95;8.05;;;21.80;29.40;;;;;;4914016;29;20056;-61
2024/01/14 06:25:58;;;;;;;16.35;7.97;;;21.80;29.40;;;;;;4910740;29;20528;-60
2024/01/14 06:29:02;;;;;;;14.27;7.10;;;21.80;29.40;;;;;;4912236;29;20063;-62
2024/01/14 06:31:30;;;;;;;10.25;6.75;;;21.80;29.40;;;;;;4912360;29;20052;-62
2024/01/14 06:33:57;;;;;;;39.63;22.35;;;21.80;29.30;;;;;;4913664;29;20048;-59
2024/01/14 06:36:24;;;;;;;24.33;15.15;;;21.80;29.20;;;;;;4913826;29;20619;-63
2024/01/14 06:38:51;;;;;;;22.25;11.48;;;21.80;29.20;;;;;;4912866;29;20059;-61
2024/01/14 06:41:21;;;;;;;15.60;8.93;;;21.70;29.20;;;;;;4916067;29;20497;-60
2024/01/14 06:43:48;;;;;;;14.68;8.40;;;21.70;29.20;;;;;;4914066;29;20421;-58
2024/01/14 06:46:16;;;;;;;14.38;7.65;;;21.70;29.30;;;;;;4913539;29;20063;-61
2024/01/14 06:48:43;;;;;;;11.15;6.95;;;21.70;29.30;;;;;;4912551;29;21751;-61
2024/01/14 06:51:11;;;;;;;8.80;6.05;;;21.60;29.20;;;;;;4914209;29;20596;-61
2024/01/14 06:53:38;;;;;;;9.23;6.30;;;21.60;29.20;;;;;;4913103;29;20611;-62
2024/01/14 06:56:06;;;;;;;9.48;6.20;;;21.60;29.20;;;;;;4914042;29;20417;-63
2024/01/14 06:58:35;;;;;;;9.75;6.10;;;21.60;29.20;;;;;;4913333;29;20055;-62
2024/01/14 07:01:03;;;;;;;13.50;5.10;;;21.50;29.20;;;;;;4913880;29;20048;-62
2024/01/14 07:03:30;;;;;;;9.98;4.65;;;21.50;29.20;;;;;;4913133;29;20063;-63
2024/01/14 07:05:57;;;;;;;11.63;5.63;;;21.40;29.20;;;;;;4909076;29;20048;-63
2024/01/14 07:08:25;;;;;;;10.02;5.00;;;21.40;29.30;;;;;;4910561;29;20481;-63
2024/01/14 07:10:53;;;;;;;11.38;4.90;;;21.40;29.70;;;;;;4913305;29;20063;-66
2024/01/14 07:13:23;;;;;;;10.18;4.88;;;21.40;29.30;;;;;;4911471;29;20059;-66
2024/01/14 07:15:53;;;;;;;8.90;4.53;;;21.40;29.30;;;;;;4909681;29;20241;-66
2024/01/14 07:18:20;;;;;;;7.18;4.50;;;21.30;29.20;;;;;;4912427;29;20052;-66
2024/01/14 07:20:50;;;;;;;22.40;5.10;;;21.40;29.30;;;;;;4908600;29;20071;-66
2024/01/14 07:23:17;;;;;;;8.40;4.50;;;21.30;29.30;;;;;;4912990;29;20060;-66
2024/01/14 07:25:44;;;;;;;12.63;3.88;;;21.30;29.40;;;;;;4910565;29;20060;-65
2024/01/14 07:28:11;;;;;;;4.88;3.33;;;21.40;29.40;;;;;;4908342;29;20048;-67
2024/01/14 07:30:39;;;;;;;5.47;3.55;;;21.40;29.50;;;;;;4906419;29;20052;-62
2024/01/14 07:33:08;;;;;;;8.40;3.65;;;21.40;29.50;;;;;;4907358;29;20063;-65
2024/01/14 07:35:36;;;;;;;5.78;3.30;;;21.50;29.50;;;;;;4910359;29;20060;-62
2024/01/14 07:38:07;;;;;;;8.68;3.70;;;21.50;29.50;;;;;;4910685;29;20052;-64
2024/01/14 07:40:35;;;;;;;4.60;3.33;;;21.60;29.50;;;;;;4911881;29;20056;-63
2024/01/14 07:43:04;;;;;;;4.70;3.38;;;21.60;29.30;;;;;;4912231;29;20056;-64
2024/01/14 07:45:32;;;;;;;4.10;3.10;;;21.70;29.40;;;;;;4910882;29;20055;-64
2024/01/14 07:48:00;;;;;;;4.88;3.22;;;21.70;29.40;;;;;;4913090;29;20409;-64
2024/01/14 07:50:29;;;;;;;3.53;2.80;;;21.80;29.40;;;;;;4912101;29;20063;-64
2024/01/14 07:52:56;;;;;;;3.88;2.85;;;21.80;29.40;;;;;;4912906;29;20485;-64
2024/01/14 07:55:24;;;;;;;3.17;2.47;;;21.90;29.40;;;;;;4907538;29;20074;-64
2024/01/14 07:57:51;;;;;;;3.88;3.25;;;21.90;29.40;;;;;;4911882;29;20063;-64
2024/01/14 08:00:18;;;;;;;3.90;2.90;;;22.00;29.30;;;;;;4912090;29;20048;-64
2024/01/14 08:02:46;;;;;;;4.90;2.78;;;22.00;29.30;;;;;;4911135;29;20064;-64
2024/01/14 08:05:13;;;;;;;4.15;2.80;;;22.00;29.20;;;;;;4915643;29;20060;-64
2024/01/14 08:07:42;;;;;;;3.67;2.70;;;22.10;29.20;;;;;;4912605;29;20063;-64
2024/01/14 08:10:10;;;;;;;3.58;2.80;;;22.10;29.10;;;;;;4911617;29;20078;-64
2024/01/14 08:12:37;;;;;;;2.90;2.60;;;22.10;29.10;;;;;;4910537;29;20534;-64
2024/01/14 08:15:05;;;;;;;3.65;2.55;;;22.20;29.10;;;;;;4911371;29;20056;-63
2024/01/14 08:17:32;;;;;;;3.72;2.78;;;22.10;29.00;;;;;;4914633;29;20527;-64
2024/01/14 08:19:59;;;;;;;9.23;3.00;;;22.10;29.00;;;;;;4911286;29;20409;-63
2024/01/14 08:22:27;;;;;;;3.38;2.53;;;22.20;29.00;;;;;;4910087;29;20052;-63
2024/01/14 08:24:55;;;;;;;5.75;3.17;;;22.20;29.00;;;;;;4909462;29;20051;-64
2024/01/14 08:27:22;;;;;;;7.03;2.80;;;22.20;29.00;;;;;;4908901;29;20097;-64
2024/01/14 08:29:50;;;;;;;4.03;2.90;;;22.10;28.90;;;;;;4907064;29;20053;-64
2024/01/14 08:32:17;;;;;;;9.43;2.75;;;22.10;28.90;;;;;;4910242;29;20501;-64
2024/01/14 08:34:44;;;;;;;12.88;3.40;;;22.10;28.90;;;;;;4906192;29;20504;-64
2024/01/14 08:37:11;;;;;;;4.20;2.85;;;22.10;28.90;;;;;;4911867;29;20627;-64
2024/01/14 08:39:38;;;;;;;9.30;2.90;;;22.10;29.00;;;;;;4909784;29;20445;-65
2024/01/14 08:42:08;;;;;;;9.15;2.80;;;22.00;28.90;;;;;;4907666;29;20062;-64
2024/01/14 08:44:35;;;;;;;9.68;3.22;;;22.00;29.00;;;;;;4909254;29;20565;-64
2024/01/14 08:47:02;;;;;;;4.13;3.03;;;22.00;29.00;;;;;;4910227;29;20445;-64
2024/01/14 08:49:30;;;;;;;5.55;2.97;;;22.00;29.00;;;;;;4909853;29;20052;-64
2024/01/14 08:51:58;;;;;;;4.88;4.03;;;21.90;29.00;;;;;;4908117;29;20382;-64
2024/01/14 08:54:25;;;;;;;9.45;4.88;;;21.90;28.60;;;;;;4907867;29;20056;-65
2024/01/14 08:56:52;;;;;;;5.93;3.85;;;21.80;28.40;;;;;;4908822;29;20062;-64
2024/01/14 08:59:21;;;;;;;4.38;3.40;;;21.80;28.40;;;;;;4911608;29;20059;-64
2024/01/14 09:01:48;;;;;;;4.45;3.53;;;21.70;28.50;;;;;;4913174;29;20425;-64
2024/01/14 09:04:15;;;;;;;4.15;3.15;;;21.70;28.60;;;;;;4913525;29;20743;-65
2024/01/14 09:06:42;;;;;;;5.00;3.30;;;21.70;28.70;;;;;;4911882;29;20283;-65
2024/01/14 09:09:11;;;;;;;4.22;3.20;;;21.70;28.90;;;;;;4912576;29;20059;-66
2024/01/14 09:11:39;;;;;;;3.40;2.47;;;21.70;29.00;;;;;;4912065;29;20055;-63
2024/01/14 09:14:07;;;;;;;4.93;2.60;;;21.70;29.00;;;;;;4908295;29;20055;-63
2024/01/14 09:16:36;;;;;;;3.97;2.90;;;21.70;29.10;;;;;;4911938;29;20056;-64
2024/01/14 09:19:03;;;;;;;5.15;3.15;;;21.80;29.10;;;;;;4910688;29;20052;-63
2024/01/14 09:21:30;;;;;;;7.00;3.00;;;21.80;29.10;;;;;;4911230;29;20056;-65
2024/01/14 09:23:57;;;;;;;6.97;2.80;;;21.90;29.20;;;;;;4911654;29;20052;-61
2024/01/14 09:26:24;;;;;;;5.07;3.42;;;21.90;29.20;;;;;;4913834;29;20060;-60
2024/01/14 09:28:52;;;;;;;4.10;3.22;;;21.90;29.20;;;;;;4913830;29;20055;-61
2024/01/14 09:31:19;;;;;;;7.38;3.22;;;21.90;29.10;;;;;;4913710;29;20060;-62
2024/01/14 09:33:47;;;;;;;7.80;3.20;;;22.00;29.20;;;;;;4911908;29;20060;-61
2024/01/14 09:36:14;;;;;;;28.40;12.90;;;22.00;29.20;;;;;;4911856;29;20051;-61
2024/01/14 09:38:42;;;;;;;37.55;18.13;;;22.10;29.20;;;;;;4914322;29;20449;-60
2024/01/14 09:41:21;;;;;;;22.95;11.07;;;22.10;29.00;;;;;;4913512;29;20052;-61
2024/01/14 09:43:51;;;;;;;14.95;8.20;;;22.20;29.00;;;;;;4911391;29;20052;-61
2024/01/14 09:46:19;;;;;;;12.93;7.18;;;22.20;29.00;;;;;;4912289;29;20413;-62
2024/01/14 09:48:49;;;;;;;14.45;6.80;;;22.30;29.00;;;;;;4910599;29;20782;-61
2024/01/14 09:51:18;;;;;;;12.07;6.43;;;22.30;29.00;;;;;;4911958;29;20063;-61
2024/01/14 09:53:46;;;;;;;11.10;6.68;;;22.30;28.90;;;;;;4911209;29;20052;-61
2024/01/14 09:56:14;;;;;;;11.25;6.78;;;22.30;28.90;;;;;;4912790;29;20412;-61
2024/01/14 09:58:44;;;;;;;13.13;5.95;;;22.30;28.80;;;;;;4911860;29;20056;-61
2024/01/14 10:01:14;;;;;;;8.93;5.60;;;22.30;28.70;;;;;;4909945;29;20056;-61
2024/01/14 10:03:41;;;;;;;10.38;5.60;;;22.30;28.70;;;;;;4909749;29;20056;-61
2024/01/14 10:06:10;;;;;;;8.80;5.32;;;22.30;28.70;;;;;;4911696;29;20516;-61
2024/01/14 10:08:37;;;;;;;6.72;4.80;;;22.30;28.70;;;;;;4914571;29;20529;-62
2024/01/14 10:11:05;;;;;;;8.27;5.03;;;22.30;28.70;;;;;;4912695;29;20063;-63
2024/01/14 10:13:32;;;;;;;9.48;5.43;;;22.30;28.70;;;;;;4922557;29;20055;-62
2024/01/14 10:16:01;;;;;;;8.13;5.65;;;22.20;28.70;;;;;;4912066;29;20052;-62
2024/01/14 10:18:28;;;;;;;7.05;5.10;;;22.20;28.70;;;;;;4912530;29;20067;-63
2024/01/14 10:20:57;;;;;;;9.07;5.28;;;22.20;28.70;;;;;;4912418;29;20055;-63
2024/01/14 10:23:26;;;;;;;6.68;4.60;;;22.20;28.70;;;;;;4915419;29;20056;-62
2024/01/14 10:25:54;;;;;;;25.88;14.90;;;22.10;28.70;;;;;;4917761;29;20060;-63
2024/01/14 10:28:21;;;;;;;27.98;15.55;;;22.10;28.70;;;;;;4915496;29;20424;-62
2024/01/14 10:30:48;;;;;;;23.48;12.15;;;22.10;28.70;;;;;;4916448;29;20055;-63
2024/01/14 10:33:15;;;;;;;18.02;9.23;;;22.00;28.70;;;;;;4916610;29;20059;-61
2024/01/14 10:35:45;;;;;;;20.50;8.27;;;22.00;28.70;;;;;;4916392;29;20060;-58
2024/01/14 10:38:12;;;;;;;13.32;7.45;;;21.90;28.70;;;;;;4914750;29;20052;-60
2024/01/14 10:40:40;;;;;;;10.82;7.40;;;21.90;28.80;;;;;;4911385;29;20052;-61
2024/01/14 10:43:08;;;;;;;11.30;6.53;;;21.90;28.80;;;;;;4911821;29;20060;-62
2024/01/14 10:45:35;;;;;;;10.13;6.93;;;21.80;28.80;;;;;;4909559;29;20055;-61
2024/01/14 10:48:07;;;;;;;9.20;6.25;;;21.80;28.80;;;;;;4912511;29;20056;-62
2024/01/14 10:50:36;;;;;;;10.32;6.30;;;21.80;28.90;;;;;;4911289;29;20052;-60
2024/01/14 10:53:07;;;;;;;10.65;6.00;;;21.70;28.90;;;;;;4914061;29;20393;-61
2024/01/14 10:55:41;;;;;;;8.77;5.43;;;21.70;29.00;;;;;;4914478;29;20067;-60
2024/01/14 10:58:18;;;;;;;12.43;5.93;;;21.70;29.00;;;;;;4914848;29;20512;-60
2024/01/14 11:00:49;;;;;;;8.93;5.40;;;21.70;29.10;;;;;;4915738;29;20412;-62
2024/01/14 11:03:18;;;;;;;7.72;4.57;;;21.70;29.10;;;;;;4913990;29;20414;-60
2024/01/14 11:05:45;;;;;;;8.02;5.05;;;21.80;29.20;;;;;;4914179;29;20059;-60
2024/01/14 11:08:14;;;;;;;6.05;4.25;;;21.80;29.20;;;;;;4916592;29;20047;-62
2024/01/14 11:10:41;;;;;;;6.43;4.03;;;21.80;29.20;;;;;;4911793;29;20056;-61
2024/01/14 11:13:22;;;;;;;7.80;4.78;;;21.90;29.20;;;;;;4911824;29;20059;-61
2024/01/14 11:15:57;;;;;;;4.75;3.85;;;21.90;29.20;;;;;;4913663;29;20052;-61
2024/01/14 11:18:30;;;;;;;7.22;4.03;;;22.00;29.20;;;;;;4917654;29;20060;-61
2024/01/14 11:21:06;;;;;;;5.57;4.15;;;22.00;29.10;;;;;;4910147;29;20056;-61
2024/01/14 11:23:34;;;;;;;5.40;3.72;;;22.00;29.10;;;;;;4911885;29;20055;-62
2024/01/14 11:26:02;;;;;;;5.38;3.72;;;22.00;29.00;;;;;;4915069;29;20048;-60
2024/01/14 11:28:30;;;;;;;6.20;3.58;;;22.00;29.00;;;;;;4912856;29;20056;-63
2024/01/14 11:31:00;;;;;;;8.45;3.17;;;22.00;29.00;;;;;;4911756;29;20056;-61
2024/01/14 11:33:28;;;;;;;8.63;3.63;;;22.00;29.10;;;;;;4912378;29;20052;-60
2024/01/14 11:35:56;;;;;;;5.82;3.63;;;22.00;29.10;;;;;;4908573;29;20420;-60
2024/01/14 11:38:33;;;;;;;8.95;3.45;;;22.00;29.10;;;;;;4911940;29;20067;-61
2024/01/14 11:41:22;;;;;;;6.50;3.25;;;22.00;29.20;;;;;;4912858;29;20052;-61
2024/01/14 11:43:53;;;;;;;10.80;3.35;;;22.00;29.20;;;;;;4910369;29;20052;-63
2024/01/14 11:46:35;;;;;;;5.72;3.20;;;22.00;29.20;;;;;;4910306;29;20048;-63
2024/01/14 11:49:06;;;;;;;8.65;3.08;;;22.00;29.10;;;;;;4909743;29;20044;-63
2024/01/14 11:51:34;;;;;;;7.90;3.42;;;21.90;29.10;;;;;;4913089;29;20063;-62
2024/01/14 11:54:08;;;;;;;5.25;3.33;;;21.90;29.10;;;;;;4913271;29;20052;-62
2024/01/14 11:56:35;;;;;;;6.68;3.28;;;21.90;29.10;;;;;;4913912;29;20052;-63
2024/01/14 11:59:08;;;;;;;9.95;4.05;;;21.90;29.10;;;;;;4920122;29;20063;-63
2024/01/14 12:01:36;;;;;;;6.38;3.58;;;21.80;29.00;;;;;;4912448;29;20056;-63
2024/01/14 12:04:04;;;;;;;5.63;3.67;;;21.80;29.00;;;;;;4912353;29;20417;-62
2024/01/14 12:06:39;;;;;;;8.45;3.72;;;21.80;29.10;;;;;;4911905;29;20056;-63
2024/01/14 12:09:07;;;;;;;6.13;3.75;;;21.70;29.00;;;;;;4913399;29;20663;-62
2024/01/14 12:11:35;;;;;;;4.75;3.53;;;21.70;29.10;;;;;;4913582;29;20056;-63
2024/01/14 12:14:03;;;;;;;5.38;3.20;;;21.70;29.10;;;;;;4913227;29;20485;-63
2024/01/14 12:16:32;;;;;;;4.63;3.10;;;21.60;29.10;;;;;;4912546;29;20075;-62
2024/01/14 12:19:00;;;;;;;4.18;2.97;;;21.60;29.20;;;;;;4913285;29;20052;-62
2024/01/14 12:21:28;;;;;;;3.83;3.03;;;21.60;29.20;;;;;;4907094;29;20509;-62
2024/01/14 12:23:56;;;;;;;3.33;2.78;;;21.70;29.30;;;;;;4913225;29;20059;-62
2024/01/14 12:26:23;;;;;;;3.75;3.13;;;21.70;29.30;;;;;;4915283;29;20052;-63
2024/01/14 12:28:52;;;;;;;4.45;3.38;;;21.70;29.30;;;;;;4912923;29;20078;-62
2024/01/14 12:31:21;;;;;;;3.47;2.72;;;21.80;29.30;;;;;;4913224;29;20051;-63
2024/01/14 12:54:30;;;;;;;7.35;3.78;;;22.10;29.10;;;;;;5133400;23;20047;-62
2024/01/14 13:03:48;;;;;;;3.42;2.90;;;22.10;29.00;;;;;;4935473;29;20035;-62
2024/01/14 13:06:15;;;;;;;3.30;2.55;;;22.20;29.10;;;;;;4930015;29;20059;-62
2024/01/14 13:08:42;;;;;;;3.30;2.80;;;22.10;29.00;;;;;;4931386;29;20543;-62
2024/01/14 13:11:10;;;;;;;3.22;2.67;;;22.10;29.00;;;;;;4929033;29;20051;-62
2024/01/14 13:13:38;;;;;;;4.18;3.20;;;22.10;29.00;;;;;;4926614;29;20418;-62
2024/01/14 13:16:08;;;;;;;6.68;4.00;;;22.10;29.00;;;;;;4930062;29;20413;-62
2024/01/14 13:18:36;;;;;;;92.47;60.20;;;22.00;28.90;;;;;;4930240;29;20062;-62
2024/01/14 13:21:03;;;;;;;75.57;50.92;;;22.00;28.60;;;;;;4930388;29;20052;-62